sensor_id;sensor_type;location;lat;lon;timestamp;pressure;altitude;pressure_sealevel;temperature;humidity
28797;BME280;24974;54.444;18.560;2023-12-20T00:00:42;100067.72;;;12.31;62.80
28797;BME280;24974;54.444;18.560;2023-12-20T00:03:13;100074.63;;;12.58;62.29
28797;BME280;24974;54.444;18.560;2023-12-20T00:05:45;100069.03;;;11.75;64.30
28797;BME280;24974;54.444;18.560;2023-12-20T00:08:17;100058.72;;;11.34;65.24
28797;BME280;24974;54.444;18.560;2023-12-20T00:10:47;100064.88;;;11.98;64.25
28797;BME280;24974;54.444;18.560;2023-12-20T00:13:18;100071.44;;;12.36;62.53
28797;BME280;24974;54.444;18.560;2023-12-20T00:15:49;100083.38;;;12.40;62.95
28797;BME280;24974;54.444;18.560;2023-12-20T00:18:20;100080.25;;;11.99;64.28
28797;BME280;24974;54.444;18.560;2023-12-20T00:20:51;100076.72;;;12.20;63.45
28797;BME280;24974;54.444;18.560;2023-12-20T00:23:21;100076.34;;;11.33;66.33
28797;BME280;24974;54.444;18.560;2023-12-20T00:25:53;100086.97;;;11.90;63.89
28797;BME280;24974;54.444;18.560;2023-12-20T00:28:25;100105.63;;;11.37;65.42
28797;BME280;24974;54.444;18.560;2023-12-20T00:30:56;100099.16;;;11.33;65.73
28797;BME280;24974;54.444;18.560;2023-12-20T00:33:27;100092.81;;;10.86;66.88
28797;BME280;24974;54.444;18.560;2023-12-20T00:35:58;100092.66;;;10.56;66.22
28797;BME280;24974;54.444;18.560;2023-12-20T00:38:28;100100.59;;;10.84;66.14
28797;BME280;24974;54.444;18.560;2023-12-20T00:40:59;100089.44;;;10.46;66.60
28797;BME280;24974;54.444;18.560;2023-12-20T00:43:30;100083.28;;;10.23;67.45
28797;BME280;24974;54.444;18.560;2023-12-20T00:46:01;100089.13;;;9.73;68.63
28797;BME280;24974;54.444;18.560;2023-12-20T00:48:32;100093.28;;;9.62;68.01
28797;BME280;24974;54.444;18.560;2023-12-20T00:51:03;100089.75;;;9.70;68.10
28797;BME280;24974;54.444;18.560;2023-12-20T00:53:34;100088.31;;;10.38;65.71
28797;BME280;24974;54.444;18.560;2023-12-20T00:56:05;100084.75;;;10.63;65.44
28797;BME280;24974;54.444;18.560;2023-12-20T00:58:35;100083.13;;;10.36;65.71
28797;BME280;24974;54.444;18.560;2023-12-20T01:01:06;100080.06;;;10.55;64.74
28797;BME280;24974;54.444;18.560;2023-12-20T01:03:37;100081.91;;;11.07;63.41
28797;BME280;24974;54.444;18.560;2023-12-20T01:06:08;100080.38;;;10.71;64.55
28797;BME280;24974;54.444;18.560;2023-12-20T01:08:39;100085.13;;;9.79;66.50
28797;BME280;24974;54.444;18.560;2023-12-20T01:11:09;100081.34;;;10.32;65.56
28797;BME280;24974;54.444;18.560;2023-12-20T01:13:42;100091.84;;;10.73;63.06
28797;BME280;24974;54.444;18.560;2023-12-20T01:16:12;100094.84;;;10.02;65.17
28797;BME280;24974;54.444;18.560;2023-12-20T01:18:43;100098.97;;;9.74;64.22
28797;BME280;24974;54.444;18.560;2023-12-20T01:21:14;100089.94;;;9.73;63.13
28797;BME280;24974;54.444;18.560;2023-12-20T01:23:45;100086.53;;;9.68;62.78
28797;BME280;24974;54.444;18.560;2023-12-20T01:26:16;100082.63;;;10.26;61.87
28797;BME280;24974;54.444;18.560;2023-12-20T01:28:47;100082.00;;;10.38;61.07
28797;BME280;24974;54.444;18.560;2023-12-20T01:31:18;100071.50;;;9.57;62.46
28797;BME280;24974;54.444;18.560;2023-12-20T01:33:49;100071.94;;;10.07;61.22
28797;BME280;24974;54.444;18.560;2023-12-20T01:36:19;100075.72;;;10.37;60.10
28797;BME280;24974;54.444;18.560;2023-12-20T01:38:50;100077.47;;;10.33;60.00
28797;BME280;24974;54.444;18.560;2023-12-20T01:41:21;100076.28;;;10.17;60.49
28797;BME280;24974;54.444;18.560;2023-12-20T01:43:52;100076.91;;;9.79;61.20
28797;BME280;24974;54.444;18.560;2023-12-20T01:46:24;100074.41;;;10.26;60.58
28797;BME280;24974;54.444;18.560;2023-12-20T01:48:55;100074.50;;;9.95;61.05
28797;BME280;24974;54.444;18.560;2023-12-20T01:51:26;100073.72;;;10.12;60.69
28797;BME280;24974;54.444;18.560;2023-12-20T01:53:59;100080.31;;;10.02;60.65
28797;BME280;24974;54.444;18.560;2023-12-20T01:56:31;100070.31;;;10.06;60.95
28797;BME280;24974;54.444;18.560;2023-12-20T01:59:03;100073.66;;;9.86;60.54
28797;BME280;24974;54.444;18.560;2023-12-20T02:01:35;100069.31;;;9.36;62.60
28797;BME280;24974;54.444;18.560;2023-12-20T02:04:06;100064.91;;;9.66;61.55
28797;BME280;24974;54.444;18.560;2023-12-20T02:06:39;100064.16;;;10.00;60.97
28797;BME280;24974;54.444;18.560;2023-12-20T02:09:11;100063.56;;;10.12;59.79
28797;BME280;24974;54.444;18.560;2023-12-20T02:11:42;100072.06;;;9.93;60.28
28797;BME280;24974;54.444;18.560;2023-12-20T02:14:13;100069.22;;;9.50;61.96
28797;BME280;24974;54.444;18.560;2023-12-20T02:16:44;100059.44;;;9.75;61.12
28797;BME280;24974;54.444;18.560;2023-12-20T02:19:17;100057.50;;;9.27;62.07
28797;BME280;24974;54.444;18.560;2023-12-20T02:21:48;100061.41;;;9.35;62.16
28797;BME280;24974;54.444;18.560;2023-12-20T02:24:19;100065.84;;;9.62;61.55
28797;BME280;24974;54.444;18.560;2023-12-20T02:26:50;100063.69;;;10.16;60.06
28797;BME280;24974;54.444;18.560;2023-12-20T02:29:20;100064.97;;;9.92;60.70
28797;BME280;24974;54.444;18.560;2023-12-20T02:31:51;100074.84;;;9.53;62.04
28797;BME280;24974;54.444;18.560;2023-12-20T02:34:22;100078.84;;;9.87;61.13
28797;BME280;24974;54.444;18.560;2023-12-20T02:36:53;100068.84;;;10.00;59.98
28797;BME280;24974;54.444;18.560;2023-12-20T02:39:24;100058.66;;;9.92;59.92
28797;BME280;24974;54.444;18.560;2023-12-20T02:41:55;100070.47;;;9.44;61.76
28797;BME280;24974;54.444;18.560;2023-12-20T02:44:26;100068.06;;;10.17;59.98
28797;BME280;24974;54.444;18.560;2023-12-20T02:46:56;100059.69;;;10.56;58.45
28797;BME280;24974;54.444;18.560;2023-12-20T02:49:27;100049.00;;;10.03;60.10
28797;BME280;24974;54.444;18.560;2023-12-20T02:51:58;100048.94;;;9.29;62.25
28797;BME280;24974;54.444;18.560;2023-12-20T02:54:29;100040.25;;;9.84;60.54
28797;BME280;24974;54.444;18.560;2023-12-20T02:57:00;100039.47;;;10.00;60.62
28797;BME280;24974;54.444;18.560;2023-12-20T02:59:31;100045.03;;;9.21;62.24
28797;BME280;24974;54.444;18.560;2023-12-20T03:02:02;100035.72;;;9.79;60.76
28797;BME280;24974;54.444;18.560;2023-12-20T03:04:33;100028.53;;;9.52;61.43
28797;BME280;24974;54.444;18.560;2023-12-20T03:07:04;100032.03;;;9.92;59.86
28797;BME280;24974;54.444;18.560;2023-12-20T03:09:34;100029.06;;;9.14;62.81
28797;BME280;24974;54.444;18.560;2023-12-20T03:12:05;100031.44;;;9.47;61.74
28797;BME280;24974;54.444;18.560;2023-12-20T03:14:36;100013.88;;;9.57;61.77
28797;BME280;24974;54.444;18.560;2023-12-20T03:17:07;100024.06;;;9.56;61.60
28797;BME280;24974;54.444;18.560;2023-12-20T03:19:38;100028.88;;;9.11;62.82
28797;BME280;24974;54.444;18.560;2023-12-20T03:22:09;100032.00;;;9.75;60.99
28797;BME280;24974;54.444;18.560;2023-12-20T03:24:39;100016.28;;;9.49;61.60
28797;BME280;24974;54.444;18.560;2023-12-20T03:27:10;100018.69;;;10.43;58.22
28797;BME280;24974;54.444;18.560;2023-12-20T03:29:41;100024.25;;;9.86;60.34
28797;BME280;24974;54.444;18.560;2023-12-20T03:32:12;100023.41;;;9.59;60.67
28797;BME280;24974;54.444;18.560;2023-12-20T03:34:43;100033.03;;;9.39;61.40
28797;BME280;24974;54.444;18.560;2023-12-20T03:37:14;100029.31;;;9.44;61.32
28797;BME280;24974;54.444;18.560;2023-12-20T03:39:45;100027.00;;;9.77;60.12
28797;BME280;24974;54.444;18.560;2023-12-20T03:42:16;100025.81;;;9.52;60.92
28797;BME280;24974;54.444;18.560;2023-12-20T03:44:47;100029.88;;;9.15;61.48
28797;BME280;24974;54.444;18.560;2023-12-20T03:47:18;100029.38;;;9.13;62.38
28797;BME280;24974;54.444;18.560;2023-12-20T03:49:48;100028.78;;;9.90;59.69
28797;BME280;24974;54.444;18.560;2023-12-20T03:52:19;100024.91;;;9.91;59.83
28797;BME280;24974;54.444;18.560;2023-12-20T03:54:50;100029.50;;;9.47;61.07
28797;BME280;24974;54.444;18.560;2023-12-20T03:57:21;100027.03;;;9.37;60.63
28797;BME280;24974;54.444;18.560;2023-12-20T03:59:52;100015.88;;;9.91;59.65
28797;BME280;24974;54.444;18.560;2023-12-20T04:02:22;100028.22;;;9.53;60.50
28797;BME280;24974;54.444;18.560;2023-12-20T04:04:53;100028.09;;;9.19;61.35
28797;BME280;24974;54.444;18.560;2023-12-20T04:07:24;100023.53;;;9.06;61.74
28797;BME280;24974;54.444;18.560;2023-12-20T04:09:55;100016.25;;;9.41;60.60
28797;BME280;24974;54.444;18.560;2023-12-20T04:12:27;100017.97;;;9.28;61.51
28797;BME280;24974;54.444;18.560;2023-12-20T04:14:59;100022.78;;;8.83;61.77
28797;BME280;24974;54.444;18.560;2023-12-20T04:17:29;100021.91;;;9.05;61.11
28797;BME280;24974;54.444;18.560;2023-12-20T04:20:00;100030.31;;;8.77;62.34
28797;BME280;24974;54.444;18.560;2023-12-20T04:22:31;100031.53;;;8.93;61.66
28797;BME280;24974;54.444;18.560;2023-12-20T04:25:02;100031.06;;;8.91;62.13
28797;BME280;24974;54.444;18.560;2023-12-20T04:27:33;100035.13;;;9.03;60.95
28797;BME280;24974;54.444;18.560;2023-12-20T04:30:04;100035.34;;;9.15;60.94
28797;BME280;24974;54.444;18.560;2023-12-20T04:32:35;100041.38;;;8.94;62.11
28797;BME280;24974;54.444;18.560;2023-12-20T04:35:06;100037.03;;;8.93;61.90
28797;BME280;24974;54.444;18.560;2023-12-20T04:37:39;100050.34;;;8.86;62.11
28797;BME280;24974;54.444;18.560;2023-12-20T04:40:10;100042.53;;;8.71;61.82
28797;BME280;24974;54.444;18.560;2023-12-20T04:42:41;100048.94;;;8.66;61.72
28797;BME280;24974;54.444;18.560;2023-12-20T04:45:12;100034.09;;;8.90;61.94
28797;BME280;24974;54.444;18.560;2023-12-20T04:47:44;100034.06;;;9.21;60.50
28797;BME280;24974;54.444;18.560;2023-12-20T04:50:15;100039.03;;;8.79;61.53
28797;BME280;24974;54.444;18.560;2023-12-20T04:52:46;100037.06;;;9.02;60.42
28797;BME280;24974;54.444;18.560;2023-12-20T04:55:17;100042.78;;;9.14;60.08
28797;BME280;24974;54.444;18.560;2023-12-20T04:57:48;100047.03;;;8.98;61.09
28797;BME280;24974;54.444;18.560;2023-12-20T05:00:19;100043.91;;;8.82;61.58
28797;BME280;24974;54.444;18.560;2023-12-20T05:02:49;100041.59;;;8.53;61.34
28797;BME280;24974;54.444;18.560;2023-12-20T05:05:20;100039.47;;;9.04;60.89
28797;BME280;24974;54.444;18.560;2023-12-20T05:07:51;100037.78;;;9.16;59.84
28797;BME280;24974;54.444;18.560;2023-12-20T05:10:23;100025.56;;;8.91;60.69
28797;BME280;24974;54.444;18.560;2023-12-20T05:12:53;100026.25;;;8.44;62.14
28797;BME280;24974;54.444;18.560;2023-12-20T05:15:24;100032.47;;;8.89;60.79
28797;BME280;24974;54.444;18.560;2023-12-20T05:17:55;100040.19;;;7.70;64.11
28797;BME280;24974;54.444;18.560;2023-12-20T05:20:26;100042.50;;;8.93;60.85
28797;BME280;24974;54.444;18.560;2023-12-20T05:22:57;100039.13;;;9.36;59.55
28797;BME280;24974;54.444;18.560;2023-12-20T05:25:27;100045.03;;;8.90;60.22
28797;BME280;24974;54.444;18.560;2023-12-20T05:27:58;100040.84;;;8.03;62.99
28797;BME280;24974;54.444;18.560;2023-12-20T05:30:29;100049.63;;;8.72;61.22
28797;BME280;24974;54.444;18.560;2023-12-20T05:33:00;100039.72;;;9.16;59.41
28797;BME280;24974;54.444;18.560;2023-12-20T05:35:31;100037.50;;;8.95;59.50
28797;BME280;24974;54.444;18.560;2023-12-20T05:38:02;100023.00;;;9.35;58.80
28797;BME280;24974;54.444;18.560;2023-12-20T05:40:33;100024.94;;;8.94;59.20
28797;BME280;24974;54.444;18.560;2023-12-20T05:43:03;100020.78;;;7.94;62.40
28797;BME280;24974;54.444;18.560;2023-12-20T05:45:34;100026.69;;;8.23;62.32
28797;BME280;24974;54.444;18.560;2023-12-20T05:48:05;100028.91;;;8.35;61.89
28797;BME280;24974;54.444;18.560;2023-12-20T05:50:36;100027.34;;;8.96;60.26
28797;BME280;24974;54.444;18.560;2023-12-20T05:53:07;100031.13;;;8.78;60.63
28797;BME280;24974;54.444;18.560;2023-12-20T05:55:38;100025.34;;;8.57;60.79
28797;BME280;24974;54.444;18.560;2023-12-20T05:58:09;100024.97;;;7.77;62.45
28797;BME280;24974;54.444;18.560;2023-12-20T06:00:40;100025.53;;;8.38;60.40
28797;BME280;24974;54.444;18.560;2023-12-20T06:03:11;100025.69;;;7.83;62.36
28797;BME280;24974;54.444;18.560;2023-12-20T06:05:41;100028.66;;;8.09;62.30
28797;BME280;24974;54.444;18.560;2023-12-20T06:08:12;100023.28;;;8.62;60.33
28797;BME280;24974;54.444;18.560;2023-12-20T06:10:43;100014.00;;;8.50;61.20
28797;BME280;24974;54.444;18.560;2023-12-20T06:13:14;100010.81;;;8.11;61.12
28797;BME280;24974;54.444;18.560;2023-12-20T06:15:44;100010.84;;;7.98;62.33
28797;BME280;24974;54.444;18.560;2023-12-20T06:18:15;100002.34;;;7.08;64.78
28797;BME280;24974;54.444;18.560;2023-12-20T06:20:46;100000.81;;;7.93;62.20
28797;BME280;24974;54.444;18.560;2023-12-20T06:23:17;99995.75;;;7.50;62.88
28797;BME280;24974;54.444;18.560;2023-12-20T06:25:47;99997.75;;;8.31;60.96
28797;BME280;24974;54.444;18.560;2023-12-20T06:28:18;99988.72;;;8.44;61.18
28797;BME280;24974;54.444;18.560;2023-12-20T06:30:49;99983.50;;;8.65;59.52
28797;BME280;24974;54.444;18.560;2023-12-20T06:33:20;99988.41;;;8.32;60.85
28797;BME280;24974;54.444;18.560;2023-12-20T06:35:52;99982.56;;;8.25;60.82
28797;BME280;24974;54.444;18.560;2023-12-20T06:38:23;99988.69;;;7.85;62.38
28797;BME280;24974;54.444;18.560;2023-12-20T06:40:54;99978.94;;;7.57;62.04
28797;BME280;24974;54.444;18.560;2023-12-20T06:43:25;99975.69;;;8.50;60.64
28797;BME280;24974;54.444;18.560;2023-12-20T06:45:57;99970.16;;;8.19;60.77
28797;BME280;24974;54.444;18.560;2023-12-20T06:48:27;99973.66;;;8.64;59.28
28797;BME280;24974;54.444;18.560;2023-12-20T06:51:02;99977.75;;;8.44;60.17
28797;BME280;24974;54.444;18.560;2023-12-20T06:53:33;99975.53;;;7.88;61.98
28797;BME280;24974;54.444;18.560;2023-12-20T06:56:04;99967.47;;;8.05;61.45
28797;BME280;24974;54.444;18.560;2023-12-20T06:58:35;99970.88;;;8.33;60.37
28797;BME280;24974;54.444;18.560;2023-12-20T07:01:14;99977.34;;;8.14;61.29
28797;BME280;24974;54.444;18.560;2023-12-20T07:03:45;99984.56;;;7.74;61.75
28797;BME280;24974;54.444;18.560;2023-12-20T07:06:16;99990.34;;;8.09;60.68
28797;BME280;24974;54.444;18.560;2023-12-20T07:08:47;99980.38;;;7.91;61.24
28797;BME280;24974;54.444;18.560;2023-12-20T07:11:18;99973.84;;;8.00;61.15
28797;BME280;24974;54.444;18.560;2023-12-20T07:13:49;99980.38;;;7.41;62.97
28797;BME280;24974;54.444;18.560;2023-12-20T07:16:20;99974.50;;;7.83;61.36
28797;BME280;24974;54.444;18.560;2023-12-20T07:18:51;99976.13;;;7.35;62.90
28797;BME280;24974;54.444;18.560;2023-12-20T07:21:23;99972.19;;;7.77;61.51
28797;BME280;24974;54.444;18.560;2023-12-20T07:23:54;99971.94;;;7.65;61.85
28797;BME280;24974;54.444;18.560;2023-12-20T07:26:25;99968.16;;;8.10;60.61
28797;BME280;24974;54.444;18.560;2023-12-20T07:28:55;99959.09;;;7.38;62.75
28797;BME280;24974;54.444;18.560;2023-12-20T07:31:26;99978.56;;;7.09;63.35
28797;BME280;24974;54.444;18.560;2023-12-20T07:33:58;99964.50;;;8.01;61.00
28797;BME280;24974;54.444;18.560;2023-12-20T07:36:28;99969.38;;;7.68;62.01
28797;BME280;24974;54.444;18.560;2023-12-20T07:38:59;99967.19;;;7.93;61.05
28797;BME280;24974;54.444;18.560;2023-12-20T07:41:30;99955.19;;;7.30;61.86
28797;BME280;24974;54.444;18.560;2023-12-20T07:44:01;99948.47;;;7.86;60.56
28797;BME280;24974;54.444;18.560;2023-12-20T07:46:32;99955.06;;;7.49;62.29
28797;BME280;24974;54.444;18.560;2023-12-20T07:49:05;99945.78;;;7.22;62.45
28797;BME280;24974;54.444;18.560;2023-12-20T07:51:36;99947.66;;;6.53;64.29
28797;BME280;24974;54.444;18.560;2023-12-20T07:54:07;99949.72;;;7.30;62.63
28797;BME280;24974;54.444;18.560;2023-12-20T07:56:38;99944.91;;;7.63;61.66
28797;BME280;24974;54.444;18.560;2023-12-20T07:59:10;99947.19;;;7.20;62.55
28797;BME280;24974;54.444;18.560;2023-12-20T08:01:41;99945.41;;;7.51;61.61
28797;BME280;24974;54.444;18.560;2023-12-20T08:04:13;99934.72;;;7.77;60.68
28797;BME280;24974;54.444;18.560;2023-12-20T08:06:43;99931.50;;;7.12;62.59
28797;BME280;24974;54.444;18.560;2023-12-20T08:09:14;99924.72;;;7.23;61.65
28797;BME280;24974;54.444;18.560;2023-12-20T08:11:46;99931.00;;;6.96;62.80
28797;BME280;24974;54.444;18.560;2023-12-20T08:14:17;99920.19;;;6.91;62.87
28797;BME280;24974;54.444;18.560;2023-12-20T08:16:48;99910.84;;;7.92;60.27
28797;BME280;24974;54.444;18.560;2023-12-20T08:19:19;99923.31;;;7.25;61.49
28797;BME280;24974;54.444;18.560;2023-12-20T08:21:49;99905.19;;;7.16;62.28
28797;BME280;24974;54.444;18.560;2023-12-20T08:24:20;99911.78;;;7.65;60.63
28797;BME280;24974;54.444;18.560;2023-12-20T08:26:51;99925.94;;;7.17;62.05
28797;BME280;24974;54.444;18.560;2023-12-20T08:29:23;99911.97;;;7.05;63.33
28797;BME280;24974;54.444;18.560;2023-12-20T08:31:54;99936.28;;;6.92;62.82
28797;BME280;24974;54.444;18.560;2023-12-20T08:34:25;99914.63;;;7.46;61.87
28797;BME280;24974;54.444;18.560;2023-12-20T08:36:56;99907.06;;;8.01;59.75
28797;BME280;24974;54.444;18.560;2023-12-20T08:39:27;99909.34;;;7.85;61.31
28797;BME280;24974;54.444;18.560;2023-12-20T08:42:00;99899.53;;;7.84;60.91
28797;BME280;24974;54.444;18.560;2023-12-20T08:44:33;99899.91;;;7.92;59.79
28797;BME280;24974;54.444;18.560;2023-12-20T08:47:05;99906.50;;;8.13;60.17
28797;BME280;24974;54.444;18.560;2023-12-20T08:49:35;99890.09;;;8.13;60.50
28797;BME280;24974;54.444;18.560;2023-12-20T08:52:06;99881.31;;;8.56;59.11
28797;BME280;24974;54.444;18.560;2023-12-20T08:54:37;99879.56;;;7.62;61.37
28797;BME280;24974;54.444;18.560;2023-12-20T08:57:08;99887.09;;;7.56;61.07
28797;BME280;24974;54.444;18.560;2023-12-20T08:59:39;99883.56;;;8.54;59.20
28797;BME280;24974;54.444;18.560;2023-12-20T09:02:09;99888.97;;;7.92;60.92
28797;BME280;24974;54.444;18.560;2023-12-20T09:04:40;99871.81;;;8.00;60.88
28797;BME280;24974;54.444;18.560;2023-12-20T09:07:21;99879.94;;;7.69;61.08
28797;BME280;24974;54.444;18.560;2023-12-20T09:09:53;99869.63;;;8.73;58.94
28797;BME280;24974;54.444;18.560;2023-12-20T09:12:24;99872.94;;;8.52;59.97
28797;BME280;24974;54.444;18.560;2023-12-20T09:14:55;99859.44;;;8.64;59.50
28797;BME280;24974;54.444;18.560;2023-12-20T09:17:26;99868.94;;;7.82;60.95
28797;BME280;24974;54.444;18.560;2023-12-20T09:19:57;99869.22;;;7.95;60.83
28797;BME280;24974;54.444;18.560;2023-12-20T09:22:30;99871.53;;;6.93;63.34
28797;BME280;24974;54.444;18.560;2023-12-20T09:25:01;99857.50;;;7.58;62.59
28797;BME280;24974;54.444;18.560;2023-12-20T09:27:32;99852.50;;;8.27;60.58
28797;BME280;24974;54.444;18.560;2023-12-20T09:30:03;99838.84;;;7.60;61.79
28797;BME280;24974;54.444;18.560;2023-12-20T09:32:35;99838.25;;;8.39;59.80
28797;BME280;24974;54.444;18.560;2023-12-20T09:35:06;99829.19;;;8.07;60.36
28797;BME280;24974;54.444;18.560;2023-12-20T09:37:39;99820.25;;;8.24;60.44
28797;BME280;24974;54.444;18.560;2023-12-20T09:40:14;99829.38;;;8.11;60.67
28797;BME280;24974;54.444;18.560;2023-12-20T09:42:56;99822.34;;;7.65;62.33
28797;BME280;24974;54.444;18.560;2023-12-20T09:45:28;99809.63;;;7.92;62.02
28797;BME280;24974;54.444;18.560;2023-12-20T09:48:01;99798.97;;;8.44;60.25
28797;BME280;24974;54.444;18.560;2023-12-20T09:50:33;99801.03;;;8.07;61.79
28797;BME280;24974;54.444;18.560;2023-12-20T09:53:05;99808.47;;;8.15;60.70
28797;BME280;24974;54.444;18.560;2023-12-20T09:55:41;99797.09;;;8.70;59.52
28797;BME280;24974;54.444;18.560;2023-12-20T09:58:12;99790.97;;;8.64;59.98
28797;BME280;24974;54.444;18.560;2023-12-20T10:00:43;99790.47;;;8.54;59.71
28797;BME280;24974;54.444;18.560;2023-12-20T10:03:14;99773.69;;;8.16;61.41
28797;BME280;24974;54.444;18.560;2023-12-20T10:05:47;99769.72;;;7.91;61.52
28797;BME280;24974;54.444;18.560;2023-12-20T10:08:21;99768.34;;;8.41;60.17
28797;BME280;24974;54.444;18.560;2023-12-20T10:10:53;99761.69;;;7.94;61.81
28797;BME280;24974;54.444;18.560;2023-12-20T10:13:24;99756.59;;;8.50;60.36
28797;BME280;24974;54.444;18.560;2023-12-20T10:15:55;99763.38;;;7.81;61.69
28797;BME280;24974;54.444;18.560;2023-12-20T10:18:29;99754.84;;;8.54;60.56
28797;BME280;24974;54.444;18.560;2023-12-20T10:21:02;99752.56;;;8.47;60.24
28797;BME280;24974;54.444;18.560;2023-12-20T10:23:33;99740.63;;;7.95;60.97
28797;BME280;24974;54.444;18.560;2023-12-20T10:26:05;99732.25;;;8.00;61.34
28797;BME280;24974;54.444;18.560;2023-12-20T10:28:36;99736.22;;;8.33;60.86
28797;BME280;24974;54.444;18.560;2023-12-20T10:31:07;99736.78;;;8.35;60.75
28797;BME280;24974;54.444;18.560;2023-12-20T10:33:40;99724.41;;;7.00;63.85
28797;BME280;24974;54.444;18.560;2023-12-20T10:36:11;99731.91;;;7.93;61.11
28797;BME280;24974;54.444;18.560;2023-12-20T10:38:44;99729.47;;;7.60;62.17
28797;BME280;24974;54.444;18.560;2023-12-20T10:41:16;99714.09;;;8.44;60.35
28797;BME280;24974;54.444;18.560;2023-12-20T10:44:01;99709.03;;;8.28;60.90
28797;BME280;24974;54.444;18.560;2023-12-20T10:46:34;99697.34;;;8.45;60.74
28797;BME280;24974;54.444;18.560;2023-12-20T10:49:06;99691.34;;;8.34;60.69
28797;BME280;24974;54.444;18.560;2023-12-20T10:51:39;99687.25;;;8.23;61.87
28797;BME280;24974;54.444;18.560;2023-12-20T10:54:10;99681.06;;;8.57;60.40
28797;BME280;24974;54.444;18.560;2023-12-20T10:56:42;99683.50;;;8.59;60.14
28797;BME280;24974;54.444;18.560;2023-12-20T10:59:15;99670.22;;;8.26;61.46
28797;BME280;24974;54.444;18.560;2023-12-20T11:01:50;99677.56;;;8.08;61.85
28797;BME280;24974;54.444;18.560;2023-12-20T11:04:28;99668.75;;;8.20;62.02
28797;BME280;24974;54.444;18.560;2023-12-20T11:07:13;99661.38;;;8.29;61.40
28797;BME280;24974;54.444;18.560;2023-12-20T11:10:10;99650.28;;;8.34;60.98
28797;BME280;24974;54.444;18.560;2023-12-20T11:12:48;99638.50;;;8.34;61.19
28797;BME280;24974;54.444;18.560;2023-12-20T11:15:21;99642.84;;;8.26;62.05
28797;BME280;24974;54.444;18.560;2023-12-20T11:17:56;99661.09;;;8.39;61.72
28797;BME280;24974;54.444;18.560;2023-12-20T11:20:38;99639.19;;;8.48;61.18
28797;BME280;24974;54.444;18.560;2023-12-20T11:23:10;99632.44;;;8.72;60.87
28797;BME280;24974;54.444;18.560;2023-12-20T11:25:48;99635.13;;;9.06;59.99
28797;BME280;24974;54.444;18.560;2023-12-20T11:28:24;99629.38;;;8.47;61.44
28797;BME280;24974;54.444;18.560;2023-12-20T11:30:58;99617.78;;;8.67;61.08
28797;BME280;24974;54.444;18.560;2023-12-20T11:33:38;99611.97;;;8.43;62.04
28797;BME280;24974;54.444;18.560;2023-12-20T11:36:18;99606.41;;;8.00;63.23
28797;BME280;24974;54.444;18.560;2023-12-20T11:38:56;99612.31;;;7.84;64.06
28797;BME280;24974;54.444;18.560;2023-12-20T11:41:28;99598.91;;;8.92;61.54
28797;BME280;24974;54.444;18.560;2023-12-20T11:43:58;99593.44;;;8.49;62.21
28797;BME280;24974;54.444;18.560;2023-12-20T11:46:31;99590.81;;;8.95;61.79
28797;BME280;24974;54.444;18.560;2023-12-20T11:49:02;99578.31;;;8.68;62.01
28797;BME280;24974;54.444;18.560;2023-12-20T11:51:33;99565.38;;;8.08;63.84
28797;BME280;24974;54.444;18.560;2023-12-20T11:54:04;99567.53;;;8.37;63.41
28797;BME280;24974;54.444;18.560;2023-12-20T11:56:36;99575.66;;;8.98;61.32
28797;BME280;24974;54.444;18.560;2023-12-20T11:59:08;99580.50;;;8.14;63.20
28797;BME280;24974;54.444;18.560;2023-12-20T12:01:39;99555.78;;;8.37;63.92
28797;BME280;24974;54.444;18.560;2023-12-20T12:04:10;99560.56;;;8.23;64.35
28797;BME280;24974;54.444;18.560;2023-12-20T12:06:41;99548.19;;;8.60;62.83
28797;BME280;24974;54.444;18.560;2023-12-20T12:09:11;99536.03;;;7.74;65.06
28797;BME280;24974;54.444;18.560;2023-12-20T12:11:42;99530.22;;;7.67;65.84
28797;BME280;24974;54.444;18.560;2023-12-20T12:14:14;99549.59;;;8.14;65.00
28797;BME280;24974;54.444;18.560;2023-12-20T12:16:45;99529.25;;;7.54;66.16
28797;BME280;24974;54.444;18.560;2023-12-20T12:19:23;99529.47;;;8.10;64.10
28797;BME280;24974;54.444;18.560;2023-12-20T12:22:07;99512.78;;;8.37;63.67
28797;BME280;24974;54.444;18.560;2023-12-20T12:24:41;99537.28;;;7.68;65.63
28797;BME280;24974;54.444;18.560;2023-12-20T12:27:13;99522.69;;;8.85;62.53
28797;BME280;24974;54.444;18.560;2023-12-20T12:30:01;99512.56;;;7.91;64.33
28797;BME280;24974;54.444;18.560;2023-12-20T12:32:38;99508.41;;;8.19;64.26
28797;BME280;24974;54.444;18.560;2023-12-20T12:35:09;99522.75;;;8.51;62.51
28797;BME280;24974;54.444;18.560;2023-12-20T12:37:41;99516.88;;;7.66;65.13
28797;BME280;24974;54.444;18.560;2023-12-20T12:40:14;99516.75;;;7.97;64.57
28797;BME280;24974;54.444;18.560;2023-12-20T12:42:45;99508.69;;;8.69;62.50
28797;BME280;24974;54.444;18.560;2023-12-20T12:45:16;99501.63;;;9.45;61.01
28797;BME280;24974;54.444;18.560;2023-12-20T12:47:47;99492.91;;;7.63;66.40
28797;BME280;24974;54.444;18.560;2023-12-20T12:50:17;99488.66;;;8.86;63.08
28797;BME280;24974;54.444;18.560;2023-12-20T12:52:48;99498.75;;;8.13;64.34
28797;BME280;24974;54.444;18.560;2023-12-20T12:55:19;99493.94;;;8.45;63.90
28797;BME280;24974;54.444;18.560;2023-12-20T12:57:50;99500.59;;;8.82;61.97
28797;BME280;24974;54.444;18.560;2023-12-20T13:00:21;99491.16;;;8.53;64.01
28797;BME280;24974;54.444;18.560;2023-12-20T13:02:52;99496.81;;;9.04;62.35
28797;BME280;24974;54.444;18.560;2023-12-20T13:05:23;99484.41;;;8.59;62.86
28797;BME280;24974;54.444;18.560;2023-12-20T13:07:53;99484.25;;;8.12;65.04
28797;BME280;24974;54.444;18.560;2023-12-20T13:10:24;99479.09;;;7.94;65.22
28797;BME280;24974;54.444;18.560;2023-12-20T13:12:55;99477.16;;;8.20;65.25
28797;BME280;24974;54.444;18.560;2023-12-20T13:15:26;99469.63;;;8.90;63.26